sensor_id;sensor_type;location;lat;lon;timestamp;temperature;humidity
15967;DHT22;15175;48.154;11.534;2023-04-01T00:01:47;9.00;99.90
15967;DHT22;15175;48.154;11.534;2023-04-01T00:04:14;9.00;99.90
15967;DHT22;15175;48.154;11.534;2023-04-01T00:06:42;9.00;99.90
15967;DHT22;15175;48.154;11.534;2023-04-01T00:09:09;8.90;99.90
15967;DHT22;15175;48.154;11.534;2023-04-01T00:11:36;8.90;99.90
15967;DHT22;15175;48.154;11.534;2023-04-01T00:14:04;8.90;99.90
15967;DHT22;15175;48.154;11.534;2023-04-01T00:16:32;8.90;99.90
15967;DHT22;15175;48.154;11.534;2023-04-01T00:19:00;8.90;99.90
15967;DHT22;15175;48.154;11.534;2023-04-01T00:21:27;8.90;99.90
15967;DHT22;15175;48.154;11.534;2023-04-01T00:23:54;8.90;99.90
15967;DHT22;15175;48.154;11.534;2023-04-01T00:26:21;8.90;99.90
15967;DHT22;15175;48.154;11.534;2023-04-01T00:28:48;8.90;99.90
15967;DHT22;15175;48.154;11.534;2023-04-01T00:31:16;8.90;99.90
15967;DHT22;15175;48.154;11.534;2023-04-01T00:33:44;8.80;99.90
15967;DHT22;15175;48.154;11.534;2023-04-01T00:36:13;8.80;99.90
15967;DHT22;15175;48.154;11.534;2023-04-01T00:38:41;8.80;99.90
15967;DHT22;15175;48.154;11.534;2023-04-01T00:41:09;8.80;99.90
15967;DHT22;15175;48.154;11.534;2023-04-01T00:43:40;8.80;99.90
15967;DHT22;15175;48.154;11.534;2023-04-01T00:46:07;8.80;99.90
15967;DHT22;15175;48.154;11.534;2023-04-01T00:48:37;8.70;99.90
15967;DHT22;15175;48.154;11.534;2023-04-01T00:51:09;8.70;99.90
15967;DHT22;15175;48.154;11.534;2023-04-01T00:53:39;8.70;99.90
15967;DHT22;15175;48.154;11.534;2023-04-01T00:56:10;8.70;99.90
15967;DHT22;15175;48.154;11.534;2023-04-01T00:58:41;8.70;99.90
15967;DHT22;15175;48.154;11.534;2023-04-01T01:01:10;8.70;99.90
15967;DHT22;15175;48.154;11.534;2023-04-01T01:03:37;8.70;99.90
15967;DHT22;15175;48.154;11.534;2023-04-01T01:06:11;8.70;99.90
15967;DHT22;15175;48.154;11.534;2023-04-01T01:09:03;8.70;99.90
15967;DHT22;15175;48.154;11.534;2023-04-01T01:11:38;8.70;99.90
15967;DHT22;15175;48.154;11.534;2023-04-01T01:14:15;8.70;99.90
15967;DHT22;15175;48.154;11.534;2023-04-01T01:16:51;8.70;99.90
15967;DHT22;15175;48.154;11.534;2023-04-01T01:19:39;8.70;99.90
15967;DHT22;15175;48.154;11.534;2023-04-01T01:22:27;8.70;99.90
15967;DHT22;15175;48.154;11.534;2023-04-01T01:25:14;8.80;99.90
15967;DHT22;15175;48.154;11.534;2023-04-01T01:27:46;8.80;99.90
15967;DHT22;15175;48.154;11.534;2023-04-01T01:30:34;8.70;99.90
15967;DHT22;15175;48.154;11.534;2023-04-01T01:33:26;8.80;99.90
15967;DHT22;15175;48.154;11.534;2023-04-01T01:35:59;8.80;99.90
15967;DHT22;15175;48.154;11.534;2023-04-01T01:38:28;8.80;99.90
15967;DHT22;15175;48.154;11.534;2023-04-01T01:41:02;8.70;99.90
15967;DHT22;15175;48.154;11.534;2023-04-01T01:43:33;8.70;99.90
15967;DHT22;15175;48.154;11.534;2023-04-01T01:46:06;8.70;99.90
15967;DHT22;15175;48.154;11.534;2023-04-01T01:48:35;8.70;99.90
15967;DHT22;15175;48.154;11.534;2023-04-01T01:51:05;8.70;99.90
15967;DHT22;15175;48.154;11.534;2023-04-01T01:53:32;8.70;99.90
15967;DHT22;15175;48.154;11.534;2023-04-01T01:56:00;8.70;99.90
15967;DHT22;15175;48.154;11.534;2023-04-01T01:58:32;8.70;99.90
15967;DHT22;15175;48.154;11.534;2023-04-01T02:01:03;8.70;99.90
15967;DHT22;15175;48.154;11.534;2023-04-01T02:03:35;8.70;99.90
15967;DHT22;15175;48.154;11.534;2023-04-01T02:06:06;8.70;99.90
15967;DHT22;15175;48.154;11.534;2023-04-01T02:08:35;8.70;99.90
15967;DHT22;15175;48.154;11.534;2023-04-01T02:11:05;8.70;99.90
15967;DHT22;15175;48.154;11.534;2023-04-01T02:13:42;8.70;99.90
15967;DHT22;15175;48.154;11.534;2023-04-01T02:16:13;8.70;99.90
15967;DHT22;15175;48.154;11.534;2023-04-01T02:18:43;8.70;99.90
15967;DHT22;15175;48.154;11.534;2023-04-01T02:21:13;8.70;99.90
15967;DHT22;15175;48.154;11.534;2023-04-01T02:23:42;8.70;99.90
15967;DHT22;15175;48.154;11.534;2023-04-01T02:26:10;8.70;99.90
15967;DHT22;15175;48.154;11.534;2023-04-01T02:28:38;8.70;99.90
15967;DHT22;15175;48.154;11.534;2023-04-01T02:31:09;8.70;99.90
15967;DHT22;15175;48.154;11.534;2023-04-01T02:33:38;8.70;99.90
15967;DHT22;15175;48.154;11.534;2023-04-01T02:36:07;8.70;99.90
15967;DHT22;15175;48.154;11.534;2023-04-01T02:38:39;8.70;99.90
15967;DHT22;15175;48.154;11.534;2023-04-01T02:41:06;8.70;99.90
15967;DHT22;15175;48.154;11.534;2023-04-01T02:43:33;8.70;99.90
15967;DHT22;15175;48.154;11.534;2023-04-01T02:46:00;8.70;99.90
15967;DHT22;15175;48.154;11.534;2023-04-01T02:48:28;8.70;99.90
15967;DHT22;15175;48.154;11.534;2023-04-01T02:50:55;8.70;99.90
15967;DHT22;15175;48.154;11.534;2023-04-01T02:53:23;8.70;99.90
15967;DHT22;15175;48.154;11.534;2023-04-01T02:55:51;8.70;99.90
15967;DHT22;15175;48.154;11.534;2023-04-01T02:58:19;8.70;99.90
15967;DHT22;15175;48.154;11.534;2023-04-01T03:00:46;8.70;99.90
15967;DHT22;15175;48.154;11.534;2023-04-01T03:03:13;8.70;99.90
15967;DHT22;15175;48.154;11.534;2023-04-01T03:05:40;8.70;99.90
15967;DHT22;15175;48.154;11.534;2023-04-01T03:08:07;8.70;99.90
15967;DHT22;15175;48.154;11.534;2023-04-01T03:10:34;8.60;99.90
15967;DHT22;15175;48.154;11.534;2023-04-01T03:13:04;8.70;99.90
15967;DHT22;15175;48.154;11.534;2023-04-01T03:15:32;8.70;99.90
15967;DHT22;15175;48.154;11.534;2023-04-01T03:17:59;8.60;99.90
15967;DHT22;15175;48.154;11.534;2023-04-01T03:20:26;8.60;99.90
15967;DHT22;15175;48.154;11.534;2023-04-01T03:22:53;8.60;99.90
15967;DHT22;15175;48.154;11.534;2023-04-01T03:25:20;8.60;99.90
15967;DHT22;15175;48.154;11.534;2023-04-01T03:27:47;8.60;99.90
15967;DHT22;15175;48.154;11.534;2023-04-01T03:30:16;8.60;99.90
15967;DHT22;15175;48.154;11.534;2023-04-01T03:32:49;8.60;99.90
15967;DHT22;15175;48.154;11.534;2023-04-01T03:35:16;8.60;99.90
15967;DHT22;15175;48.154;11.534;2023-04-01T03:37:44;8.50;99.90
15967;DHT22;15175;48.154;11.534;2023-04-01T03:40:12;8.50;99.90
15967;DHT22;15175;48.154;11.534;2023-04-01T03:42:39;8.50;99.90
15967;DHT22;15175;48.154;11.534;2023-04-01T03:45:06;8.40;99.90
15967;DHT22;15175;48.154;11.534;2023-04-01T03:47:36;8.40;99.90
15967;DHT22;15175;48.154;11.534;2023-04-01T03:50:03;8.40;99.90
15967;DHT22;15175;48.154;11.534;2023-04-01T03:52:30;8.40;99.90
15967;DHT22;15175;48.154;11.534;2023-04-01T03:54:57;8.40;99.90
15967;DHT22;15175;48.154;11.534;2023-04-01T03:57:25;8.40;99.90
15967;DHT22;15175;48.154;11.534;2023-04-01T03:59:54;8.40;99.90
15967;DHT22;15175;48.154;11.534;2023-04-01T04:02:21;8.40;99.90
15967;DHT22;15175;48.154;11.534;2023-04-01T04:04:50;8.40;99.90
15967;DHT22;15175;48.154;11.534;2023-04-01T04:07:17;8.30;99.90
15967;DHT22;15175;48.154;11.534;2023-04-01T04:10:03;8.30;99.90
15967;DHT22;15175;48.154;11.534;2023-04-01T04:12:31;8.30;99.90
15967;DHT22;15175;48.154;11.534;2023-04-01T04:14:58;8.30;99.90
15967;DHT22;15175;48.154;11.534;2023-04-01T04:17:25;8.30;99.90
15967;DHT22;15175;48.154;11.534;2023-04-01T04:19:54;8.30;99.90
15967;DHT22;15175;48.154;11.534;2023-04-01T04:22:21;8.30;99.90
15967;DHT22;15175;48.154;11.534;2023-04-01T04:24:48;8.30;99.90
15967;DHT22;15175;48.154;11.534;2023-04-01T04:27:16;8.30;99.90
15967;DHT22;15175;48.154;11.534;2023-04-01T04:29:54;8.30;99.90
15967;DHT22;15175;48.154;11.534;2023-04-01T04:32:21;8.30;99.90
15967;DHT22;15175;48.154;11.534;2023-04-01T04:34:48;8.30;99.90
15967;DHT22;15175;48.154;11.534;2023-04-01T04:37:17;8.30;99.90
15967;DHT22;15175;48.154;11.534;2023-04-01T04:39:44;8.30;99.90
15967;DHT22;15175;48.154;11.534;2023-04-01T04:42:12;8.30;99.90
15967;DHT22;15175;48.154;11.534;2023-04-01T04:44:39;8.30;99.90
15967;DHT22;15175;48.154;11.534;2023-04-01T04:47:06;8.30;99.90
15967;DHT22;15175;48.154;11.534;2023-04-01T04:49:33;8.40;99.90
15967;DHT22;15175;48.154;11.534;2023-04-01T04:52:05;8.40;99.90
15967;DHT22;15175;48.154;11.534;2023-04-01T04:54:34;8.40;99.90
15967;DHT22;15175;48.154;11.534;2023-04-01T04:57:03;8.40;99.90
15967;DHT22;15175;48.154;11.534;2023-04-01T04:59:35;8.40;99.90
15967;DHT22;15175;48.154;11.534;2023-04-01T05:02:11;8.40;99.90
15967;DHT22;15175;48.154;11.534;2023-04-01T05:04:38;8.50;99.90
15967;DHT22;15175;48.154;11.534;2023-04-01T05:07:08;8.40;99.90
15967;DHT22;15175;48.154;11.534;2023-04-01T05:09:37;8.50;99.90
15967;DHT22;15175;48.154;11.534;2023-04-01T05:12:04;8.50;99.90
15967;DHT22;15175;48.154;11.534;2023-04-01T05:14:50;8.50;99.90
15967;DHT22;15175;48.154;11.534;2023-04-01T05:17:17;8.50;99.90
15967;DHT22;15175;48.154;11.534;2023-04-01T05:19:44;8.50;99.90
15967;DHT22;15175;48.154;11.534;2023-04-01T05:22:11;8.50;99.90
15967;DHT22;15175;48.154;11.534;2023-04-01T05:24:41;8.50;99.90
15967;DHT22;15175;48.154;11.534;2023-04-01T05:27:08;8.50;99.90
15967;DHT22;15175;48.154;11.534;2023-04-01T05:29:38;8.50;99.90
15967;DHT22;15175;48.154;11.534;2023-04-01T05:32:09;8.60;99.90
15967;DHT22;15175;48.154;11.534;2023-04-01T05:34:36;8.60;99.90
15967;DHT22;15175;48.154;11.534;2023-04-01T05:37:03;8.60;99.90
15967;DHT22;15175;48.154;11.534;2023-04-01T05:39:30;8.60;99.90
15967;DHT22;15175;48.154;11.534;2023-04-01T05:41:59;8.60;99.90
15967;DHT22;15175;48.154;11.534;2023-04-01T05:44:26;8.70;99.90
15967;DHT22;15175;48.154;11.534;2023-04-01T05:47:02;8.70;99.90
15967;DHT22;15175;48.154;11.534;2023-04-01T05:49:30;8.70;99.90
15967;DHT22;15175;48.154;11.534;2023-04-01T05:51:57;8.70;99.90
15967;DHT22;15175;48.154;11.534;2023-04-01T05:54:25;8.70;99.90
15967;DHT22;15175;48.154;11.534;2023-04-01T05:56:52;8.80;99.90
15967;DHT22;15175;48.154;11.534;2023-04-01T05:59:21;8.80;99.90
15967;DHT22;15175;48.154;11.534;2023-04-01T06:01:48;8.90;99.90
15967;DHT22;15175;48.154;11.534;2023-04-01T06:04:16;8.90;99.90
15967;DHT22;15175;48.154;11.534;2023-04-01T06:06:45;9.00;99.90
15967;DHT22;15175;48.154;11.534;2023-04-01T06:09:15;9.00;99.90
15967;DHT22;15175;48.154;11.534;2023-04-01T06:12:02;9.10;99.90
15967;DHT22;15175;48.154;11.534;2023-04-01T06:14:51;9.20;99.90
15967;DHT22;15175;48.154;11.534;2023-04-01T06:17:30;9.30;99.90
15967;DHT22;15175;48.154;11.534;2023-04-01T06:20:11;9.30;99.90
15967;DHT22;15175;48.154;11.534;2023-04-01T06:22:54;9.40;99.90
15967;DHT22;15175;48.154;11.534;2023-04-01T06:25:42;9.40;99.90
15967;DHT22;15175;48.154;11.534;2023-04-01T06:31:26;9.50;99.90
15967;DHT22;15175;48.154;11.534;2023-04-01T06:34:26;9.50;99.90
15967;DHT22;15175;48.154;11.534;2023-04-01T06:37:20;9.60;99.90
15967;DHT22;15175;48.154;11.534;2023-04-01T06:42:52;9.70;99.90
15967;DHT22;15175;48.154;11.534;2023-04-01T06:46:03;9.70;99.90
15967;DHT22;15175;48.154;11.534;2023-04-01T06:49:04;9.70;99.90
15967;DHT22;15175;48.154;11.534;2023-04-01T06:51:58;9.80;99.90
15967;DHT22;15175;48.154;11.534;2023-04-01T06:54:48;9.80;99.90
15967;DHT22;15175;48.154;11.534;2023-04-01T06:57:39;9.90;99.90
15967;DHT22;15175;48.154;11.534;2023-04-01T07:00:13;10.00;99.90
15967;DHT22;15175;48.154;11.534;2023-04-01T07:02:47;10.10;99.90
15967;DHT22;15175;48.154;11.534;2023-04-01T07:05:21;10.20;99.90
15967;DHT22;15175;48.154;11.534;2023-04-01T07:07:53;10.20;99.90
15967;DHT22;15175;48.154;11.534;2023-04-01T07:10:28;10.30;99.90
15967;DHT22;15175;48.154;11.534;2023-04-01T07:13:20;10.30;99.90
15967;DHT22;15175;48.154;11.534;2023-04-01T07:15:59;10.20;99.90
15967;DHT22;15175;48.154;11.534;2023-04-01T07:18:34;10.10;99.90
15967;DHT22;15175;48.154;11.534;2023-04-01T07:21:10;10.10;99.90
15967;DHT22;15175;48.154;11.534;2023-04-01T07:23:44;10.10;99.90
15967;DHT22;15175;48.154;11.534;2023-04-01T07:26:45;10.20;99.90
15967;DHT22;15175;48.154;11.534;2023-04-01T07:29:15;10.20;99.90
15967;DHT22;15175;48.154;11.534;2023-04-01T07:32:17;10.40;99.90
15967;DHT22;15175;48.154;11.534;2023-04-01T07:34:59;10.40;99.90
15967;DHT22;15175;48.154;11.534;2023-04-01T07:37:38;10.40;99.90
15967;DHT22;15175;48.154;11.534;2023-04-01T07:40:17;10.50;99.90
15967;DHT22;15175;48.154;11.534;2023-04-01T07:43:00;10.50;99.90
15967;DHT22;15175;48.154;11.534;2023-04-01T07:45:35;10.70;99.90
15967;DHT22;15175;48.154;11.534;2023-04-01T07:48:17;10.70;99.90
15967;DHT22;15175;48.154;11.534;2023-04-01T07:50:52;10.70;99.90
15967;DHT22;15175;48.154;11.534;2023-04-01T07:53:27;10.70;99.90
15967;DHT22;15175;48.154;11.534;2023-04-01T07:56:05;10.80;99.90
15967;DHT22;15175;48.154;11.534;2023-04-01T07:58:44;10.70;99.90
15967;DHT22;15175;48.154;11.534;2023-04-01T08:01:32;10.70;99.90
15967;DHT22;15175;48.154;11.534;2023-04-01T08:04:18;10.70;99.90
15967;DHT22;15175;48.154;11.534;2023-04-01T08:06:52;10.80;99.90
15967;DHT22;15175;48.154;11.534;2023-04-01T08:09:29;10.80;99.90
15967;DHT22;15175;48.154;11.534;2023-04-01T08:12:27;10.70;99.90
15967;DHT22;15175;48.154;11.534;2023-04-01T08:15:11;10.70;99.90
15967;DHT22;15175;48.154;11.534;2023-04-01T08:18:13;10.70;99.90
15967;DHT22;15175;48.154;11.534;2023-04-01T08:20:46;10.70;99.90
15967;DHT22;15175;48.154;11.534;2023-04-01T08:23:16;10.60;99.90
15967;DHT22;15175;48.154;11.534;2023-04-01T08:25:50;10.70;99.90
15967;DHT22;15175;48.154;11.534;2023-04-01T08:28:25;10.70;99.90
15967;DHT22;15175;48.154;11.534;2023-04-01T08:31:01;10.80;99.90
15967;DHT22;15175;48.154;11.534;2023-04-01T08:33:31;10.90;99.90
15967;DHT22;15175;48.154;11.534;2023-04-01T08:36:09;11.00;99.90
15967;DHT22;15175;48.154;11.534;2023-04-01T08:38:42;11.10;99.90
15967;DHT22;15175;48.154;11.534;2023-04-01T08:41:27;11.30;99.90
15967;DHT22;15175;48.154;11.534;2023-04-01T08:44:34;11.60;99.90
15967;DHT22;15175;48.154;11.534;2023-04-01T08:47:50;11.80;99.90
15967;DHT22;15175;48.154;11.534;2023-04-01T08:50:48;12.10;99.90
15967;DHT22;15175;48.154;11.534;2023-04-01T08:53:40;12.20;99.90
15967;DHT22;15175;48.154;11.534;2023-04-01T08:56:20;12.20;99.90
15967;DHT22;15175;48.154;11.534;2023-04-01T09:05:22;12.40;99.90
15967;DHT22;15175;48.154;11.534;2023-04-01T09:08:01;12.30;99.90
15967;DHT22;15175;48.154;11.534;2023-04-01T09:10:49;12.30;99.90
15967;DHT22;15175;48.154;11.534;2023-04-01T09:16:47;12.50;99.90
15967;DHT22;15175;48.154;11.534;2023-04-01T09:19:25;12.50;99.90
15967;DHT22;15175;48.154;11.534;2023-04-01T09:22:18;12.50;99.90
15967;DHT22;15175;48.154;11.534;2023-04-01T09:25:01;12.50;99.90
15967;DHT22;15175;48.154;11.534;2023-04-01T09:27:43;12.40;99.90
15967;DHT22;15175;48.154;11.534;2023-04-01T09:33:34;12.30;99.90
15967;DHT22;15175;48.154;11.534;2023-04-01T09:36:12;12.20;99.90
15967;DHT22;15175;48.154;11.534;2023-04-01T09:38:55;12.20;99.90
15967;DHT22;15175;48.154;11.534;2023-04-01T09:41:29;12.20;99.90
15967;DHT22;15175;48.154;11.534;2023-04-01T09:44:14;12.20;99.90
15967;DHT22;15175;48.154;11.534;2023-04-01T09:47:21;12.30;99.90
15967;DHT22;15175;48.154;11.534;2023-04-01T09:50:16;12.40;99.90
15967;DHT22;15175;48.154;11.534;2023-04-01T09:52:52;12.50;99.90
15967;DHT22;15175;48.154;11.534;2023-04-01T09:55:55;12.60;99.90
15967;DHT22;15175;48.154;11.534;2023-04-01T09:59:21;12.60;99.90
15967;DHT22;15175;48.154;11.534;2023-04-01T10:02:34;12.50;99.90
15967;DHT22;15175;48.154;11.534;2023-04-01T10:05:42;12.50;99.90
15967;DHT22;15175;48.154;11.534;2023-04-01T10:08:44;12.50;99.90
15967;DHT22;15175;48.154;11.534;2023-04-01T10:11:53;12.50;99.90
15967;DHT22;15175;48.154;11.534;2023-04-01T10:14:37;12.50;99.90
15967;DHT22;15175;48.154;11.534;2023-04-01T10:17:30;12.60;99.90
15967;DHT22;15175;48.154;11.534;2023-04-01T10:29:46;12.70;99.90
15967;DHT22;15175;48.154;11.534;2023-04-01T10:36:01;12.60;99.90
15967;DHT22;15175;48.154;11.534;2023-04-01T10:42:19;12.60;99.90
15967;DHT22;15175;48.154;11.534;2023-04-01T10:51:44;12.40;99.90
15967;DHT22;15175;48.154;11.534;2023-04-01T10:54:47;12.30;99.90
15967;DHT22;15175;48.154;11.534;2023-04-01T11:01:54;12.20;99.90
15967;DHT22;15175;48.154;11.534;2023-04-01T11:08:12;12.00;99.90
15967;DHT22;15175;48.154;11.534;2023-04-01T11:11:12;11.90;99.90
15967;DHT22;15175;48.154;11.534;2023-04-01T11:17:26;11.60;99.90
15967;DHT22;15175;48.154;11.534;2023-04-01T11:20:20;11.60;99.90
15967;DHT22;15175;48.154;11.534;2023-04-01T11:26:04;11.60;99.90
15967;DHT22;15175;48.154;11.534;2023-04-01T11:29:07;11.60;99.90
15967;DHT22;15175;48.154;11.534;2023-04-01T11:31:50;11.60;99.90
15967;DHT22;15175;48.154;11.534;2023-04-01T11:34:43;11.50;99.90
15967;DHT22;15175;48.154;11.534;2023-04-01T11:37:21;11.50;99.90
15967;DHT22;15175;48.154;11.534;2023-04-01T11:40:22;11.50;99.90
15967;DHT22;15175;48.154;11.534;2023-04-01T11:43:20;11.50;99.90
15967;DHT22;15175;48.154;11.534;2023-04-01T11:46:11;11.50;99.90
15967;DHT22;15175;48.154;11.534;2023-04-01T11:48:52;11.50;99.90
15967;DHT22;15175;48.154;11.534;2023-04-01T11:51:46;11.50;99.90
15967;DHT22;15175;48.154;11.534;2023-04-01T11:54:31;11.40;99.90
15967;DHT22;15175;48.154;11.534;2023-04-01T11:57:13;11.20;99.90
15967;DHT22;15175;48.154;11.534;2023-04-01T12:00:11;11.10;99.90
15967;DHT22;15175;48.154;11.534;2023-04-01T12:02:48;11.00;99.90
15967;DHT22;15175;48.154;11.534;2023-04-01T12:05:28;10.90;99.90
15967;DHT22;15175;48.154;11.534;2023-04-01T12:08:12;10.80;99.90
15967;DHT22;15175;48.154;11.534;2023-04-01T12:10:45;10.80;99.90
15967;DHT22;15175;48.154;11.534;2023-04-01T12:13:24;10.70;99.90
15967;DHT22;15175;48.154;11.534;2023-04-01T12:16:13;10.60;99.90
15967;DHT22;15175;48.154;11.534;2023-04-01T12:18:46;10.60;99.90
15967;DHT22;15175;48.154;11.534;2023-04-01T12:21:23;10.60;99.90
15967;DHT22;15175;48.154;11.534;2023-04-01T12:24:18;10.60;99.90
15967;DHT22;15175;48.154;11.534;2023-04-01T12:27:07;10.50;99.90
15967;DHT22;15175;48.154;11.534;2023-04-01T12:29:48;10.50;99.90
15967;DHT22;15175;48.154;11.534;2023-04-01T12:32:21;10.40;99.90
15967;DHT22;15175;48.154;11.534;2023-04-01T12:35:01;10.40;99.90
15967;DHT22;15175;48.154;11.534;2023-04-01T12:37:36;10.30;99.90
15967;DHT22;15175;48.154;11.534;2023-04-01T12:40:30;10.30;99.90
15967;DHT22;15175;48.154;11.534;2023-04-01T12:43:25;10.30;99.90
15967;DHT22;15175;48.154;11.534;2023-04-01T12:46:01;10.20;99.90
15967;DHT22;15175;48.154;11.534;2023-04-01T12:48:50;10.20;99.90
15967;DHT22;15175;48.154;11.534;2023-04-01T12:51:53;10.20;99.90
15967;DHT22;15175;48.154;11.534;2023-04-01T12:57:54;10.10;99.90
15967;DHT22;15175;48.154;11.534;2023-04-01T13:00:35;10.10;99.90
15967;DHT22;15175;48.154;11.534;2023-04-01T13:03:17;10.10;99.90
15967;DHT22;15175;48.154;11.534;2023-04-01T13:06:17;10.10;99.90
15967;DHT22;15175;48.154;11.534;2023-04-01T13:08:52;10.10;99.90
15967;DHT22;15175;48.154;11.534;2023-04-01T13:11:27;10.10;99.90
15967;DHT22;15175;48.154;11.534;2023-04-01T13:14:15;10.10;99.90
15967;DHT22;15175;48.154;11.534;2023-04-01T13:16:48;10.10;99.90
15967;DHT22;15175;48.154;11.534;2023-04-01T13:19:23;10.00;99.90
15967;DHT22;15175;48.154;11.534;2023-04-01T13:21:58;10.00;99.90
15967;DHT22;15175;48.154;11.534;2023-04-01T13:24:39;10.00;99.90
15967;DHT22;15175;48.154;11.534;2023-04-01T13:27:14;10.00;99.90
15967;DHT22;15175;48.154;11.534;2023-04-01T13:29:53;10.00;99.90
15967;DHT22;15175;48.154;11.534;2023-04-01T13:32:28;10.00;99.90
15967;DHT22;15175;48.154;11.534;2023-04-01T13:35:08;10.00;99.90
15967;DHT22;15175;48.154;11.534;2023-04-01T13:37:51;10.00;99.90
15967;DHT22;15175;48.154;11.534;2023-04-01T13:40:29;10.00;99.90
15967;DHT22;15175;48.154;11.534;2023-04-01T13:43:02;10.00;99.90
15967;DHT22;15175;48.154;11.534;2023-04-01T13:45:38;9.90;99.90
15967;DHT22;15175;48.154;11.534;2023-04-01T13:52:08;9.80;99.90
15967;DHT22;15175;48.154;11.534;2023-04-01T13:55:09;9.80;99.90
15967;DHT22;15175;48.154;11.534;2023-04-01T13:57:48;9.80;99.90
15967;DHT22;15175;48.154;11.534;2023-04-01T14:00:28;9.80;99.90
15967;DHT22;15175;48.154;11.534;2023-04-01T14:03:10;9.80;99.90
15967;DHT22;15175;48.154;11.534;2023-04-01T14:05:52;9.80;99.90
15967;DHT22;15175;48.154;11.534;2023-04-01T14:08:36;9.80;99.90
15967;DHT22;15175;48.154;11.534;2023-04-01T14:11:17;9.80;99.90
15967;DHT22;15175;48.154;11.534;2023-04-01T14:13:53;9.80;99.90
15967;DHT22;15175;48.154;11.534;2023-04-01T14:19:25;9.80;99.90
15967;DHT22;15175;48.154;11.534;2023-04-01T14:22:00;9.80;99.90
15967;DHT22;15175;48.154;11.534;2023-04-01T14:24:57;9.90;99.90
15967;DHT22;15175;48.154;11.534;2023-04-01T14:27:44;9.90;99.90
15967;DHT22;15175;48.154;11.534;2023-04-01T14:30:40;9.90;99.90
15967;DHT22;15175;48.154;11.534;2023-04-01T14:33:26;9.90;99.90
15967;DHT22;15175;48.154;11.534;2023-04-01T14:36:18;9.90;99.90
15967;DHT22;15175;48.154;11.534;2023-04-01T14:38:58;9.90;99.90
15967;DHT22;15175;48.154;11.534;2023-04-01T14:41:35;9.90;99.90
15967;DHT22;15175;48.154;11.534;2023-04-01T14:44:36;10.00;99.90
15967;DHT22;15175;48.154;11.534;2023-04-01T14:47:39;10.00;99.90
15967;DHT22;15175;48.154;11.534;2023-04-01T14:50:13;10.00;99.90
15967;DHT22;15175;48.154;11.534;2023-04-01T14:52:54;10.00;99.90
15967;DHT22;15175;48.154;11.534;2023-04-01T14:55:33;10.00;99.90
15967;DHT22;15175;48.154;11.534;2023-04-01T14:58:12;10.00;99.90
15967;DHT22;15175;48.154;11.534;2023-04-01T15:01:06;10.10;99.90
15967;DHT22;15175;48.154;11.534;2023-04-01T15:03:45;10.10;99.90
15967;DHT22;15175;48.154;11.534;2023-04-01T15:06:35;10.10;99.90
15967;DHT22;15175;48.154;11.534;2023-04-01T15:09:14;10.10;99.90
15967;DHT22;15175;48.154;11.534;2023-04-01T15:11:51;10.10;99.90
15967;DHT22;15175;48.154;11.534;2023-04-01T15:14:39;10.00;99.90
15967;DHT22;15175;48.154;11.534;2023-04-01T15:17:45;10.10;99.90
15967;DHT22;15175;48.154;11.534;2023-04-01T15:23:29;10.00;99.90
15967;DHT22;15175;48.154;11.534;2023-04-01T15:26:13;10.00;99.90
15967;DHT22;15175;48.154;11.534;2023-04-01T15:28:50;10.00;99.90
15967;DHT22;15175;48.154;11.534;2023-04-01T15:31:24;10.00;99.90
15967;DHT22;15175;48.154;11.534;2023-04-01T15:34:06;10.00;99.90
15967;DHT22;15175;48.154;11.534;2023-04-01T15:36:41;10.00;99.90
15967;DHT22;15175;48.154;11.534;2023-04-01T15:39:13;10.00;99.90
15967;DHT22;15175;48.154;11.534;2023-04-01T15:41:56;10.00;99.90
15967;DHT22;15175;48.154;11.534;2023-04-01T15:44:46;10.00;99.90
15967;DHT22;15175;48.154;11.534;2023-04-01T15:47:33;10.10;99.90
15967;DHT22;15175;48.154;11.534;2023-04-01T15:50:23;10.10;99.90
15967;DHT22;15175;48.154;11.534;2023-04-01T15:53:03;10.10;99.90
15967;DHT22;15175;48.154;11.534;2023-04-01T15:55:37;10.10;99.90
15967;DHT22;15175;48.154;11.534;2023-04-01T15:58:32;10.10;99.90
15967;DHT22;15175;48.154;11.534;2023-04-01T16:01:10;10.10;99.90
15967;DHT22;15175;48.154;11.534;2023-04-01T16:03:48;10.20;99.90
15967;DHT22;15175;48.154;11.534;2023-04-01T16:09:35;10.20;99.90
15967;DHT22;15175;48.154;11.534;2023-04-01T16:12:15;10.20;99.90
15967;DHT22;15175;48.154;11.534;2023-04-01T16:14:54;10.30;99.90
15967;DHT22;15175;48.154;11.534;2023-04-01T16:17:49;10.30;99.90
15967;DHT22;15175;48.154;11.534;2023-04-01T16:20:25;10.30;99.90
15967;DHT22;15175;48.154;11.534;2023-04-01T16:22:57;10.30;99.90
15967;DHT22;15175;48.154;11.534;2023-04-01T16:25:33;10.30;99.90
15967;DHT22;15175;48.154;11.534;2023-04-01T16:28:14;10.30;99.90
15967;DHT22;15175;48.154;11.534;2023-04-01T16:30:47;10.30;99.90
15967;DHT22;15175;48.154;11.534;2023-04-01T16:33:20;10.30;99.90
15967;DHT22;15175;48.154;11.534;2023-04-01T16:35:54;10.40;99.90
15967;DHT22;15175;48.154;11.534;2023-04-01T16:38:26;10.30;99.90
15967;DHT22;15175;48.154;11.534;2023-04-01T16:41:10;10.30;99.90
15967;DHT22;15175;48.154;11.534;2023-04-01T16:43:42;10.30;99.90
15967;DHT22;15175;48.154;11.534;2023-04-01T16:46:26;10.30;99.90
15967;DHT22;15175;48.154;11.534;2023-04-01T16:49:04;10.30;99.90
15967;DHT22;15175;48.154;11.534;2023-04-01T16:51:45;10.30;99.90
15967;DHT22;15175;48.154;11.534;2023-04-01T16:54:18;10.30;99.90
15967;DHT22;15175;48.154;11.534;2023-04-01T16:56:55;10.30;99.90
15967;DHT22;15175;48.154;11.534;2023-04-01T16:59:24;10.30;99.90
15967;DHT22;15175;48.154;11.534;2023-04-01T17:02:02;10.30;99.90
15967;DHT22;15175;48.154;11.534;2023-04-01T17:04:34;10.30;99.90
15967;DHT22;15175;48.154;11.534;2023-04-01T17:07:15;10.30;99.90
15967;DHT22;15175;48.154;11.534;2023-04-01T17:09:57;10.30;99.90
15967;DHT22;15175;48.154;11.534;2023-04-01T17:12:30;10.20;99.90
15967;DHT22;15175;48.154;11.534;2023-04-01T17:15:05;10.20;99.90
15967;DHT22;15175;48.154;11.534;2023-04-01T17:17:45;10.20;99.90
15967;DHT22;15175;48.154;11.534;2023-04-01T17:23:17;10.20;99.90
15967;DHT22;15175;48.154;11.534;2023-04-01T17:26:06;10.20;99.90
15967;DHT22;15175;48.154;11.534;2023-04-01T17:28:48;10.20;99.90
15967;DHT22;15175;48.154;11.534;2023-04-01T17:31:26;10.20;99.90
15967;DHT22;15175;48.154;11.534;2023-04-01T17:34:12;10.20;99.90
15967;DHT22;15175;48.154;11.534;2023-04-01T17:36:58;10.20;99.90
15967;DHT22;15175;48.154;11.534;2023-04-01T17:39:41;10.20;99.90
15967;DHT22;15175;48.154;11.534;2023-04-01T17:42:15;10.20;99.90
15967;DHT22;15175;48.154;11.534;2023-04-01T17:44:52;10.20;99.90
15967;DHT22;15175;48.154;11.534;2023-04-01T17:47:31;10.20;99.90